sensor_id;sensor_type;location;lat;lon;timestamp;P1;durP1;ratioP1;P2;durP2;ratioP2
22415;SDS011;12204;50.600;4.608;2022-11-30T00:03:28;4.20;;;2.03;;
22415;SDS011;12204;50.600;4.608;2022-11-30T00:08:33;4.07;;;2.00;;
22415;SDS011;12204;50.600;4.608;2022-11-30T00:13:37;4.78;;;2.00;;
22415;SDS011;12204;50.600;4.608;2022-11-30T00:18:41;4.90;;;2.05;;
22415;SDS011;12204;50.600;4.608;2022-11-30T00:23:46;4.95;;;2.20;;
22415;SDS011;12204;50.600;4.608;2022-11-30T00:28:52;4.65;;;2.03;;
22415;SDS011;12204;50.600;4.608;2022-11-30T00:33:56;4.68;;;2.10;;
22415;SDS011;12204;50.600;4.608;2022-11-30T00:39:02;4.30;;;2.00;;
22415;SDS011;12204;50.600;4.608;2022-11-30T00:44:06;4.43;;;2.10;;
22415;SDS011;12204;50.600;4.608;2022-11-30T00:49:09;4.28;;;2.00;;
22415;SDS011;12204;50.600;4.608;2022-11-30T00:54:14;4.72;;;2.00;;
22415;SDS011;12204;50.600;4.608;2022-11-30T00:59:18;6.40;;;2.20;;
22415;SDS011;12204;50.600;4.608;2022-11-30T01:04:21;5.07;;;1.83;;
22415;SDS011;12204;50.600;4.608;2022-11-30T01:09:26;4.75;;;2.08;;
22415;SDS011;12204;50.600;4.608;2022-11-30T01:14:30;5.35;;;2.05;;
22415;SDS011;12204;50.600;4.608;2022-11-30T01:19:33;4.22;;;1.88;;
22415;SDS011;12204;50.600;4.608;2022-11-30T01:24:38;5.05;;;1.90;;
22415;SDS011;12204;50.600;4.608;2022-11-30T01:29:42;4.07;;;1.95;;
22415;SDS011;12204;50.600;4.608;2022-11-30T01:34:45;4.50;;;2.10;;
22415;SDS011;12204;50.600;4.608;2022-11-30T01:39:50;5.32;;;2.10;;
22415;SDS011;12204;50.600;4.608;2022-11-30T01:44:54;4.10;;;1.75;;
22415;SDS011;12204;50.600;4.608;2022-11-30T01:50:01;4.40;;;1.90;;
22415;SDS011;12204;50.600;4.608;2022-11-30T01:55:15;4.43;;;1.98;;
22415;SDS011;12204;50.600;4.608;2022-11-30T02:00:23;4.90;;;2.10;;
22415;SDS011;12204;50.600;4.608;2022-11-30T02:05:27;5.13;;;2.00;;
22415;SDS011;12204;50.600;4.608;2022-11-30T02:10:33;4.53;;;2.03;;
22415;SDS011;12204;50.600;4.608;2022-11-30T02:15:43;4.03;;;1.92;;
22415;SDS011;12204;50.600;4.608;2022-11-30T02:21:03;4.45;;;2.30;;
22415;SDS011;12204;50.600;4.608;2022-11-30T02:26:21;5.15;;;2.13;;
22415;SDS011;12204;50.600;4.608;2022-11-30T02:31:47;5.43;;;2.15;;
22415;SDS011;12204;50.600;4.608;2022-11-30T02:36:57;4.78;;;2.10;;
22415;SDS011;12204;50.600;4.608;2022-11-30T02:42:02;4.20;;;2.05;;
22415;SDS011;12204;50.600;4.608;2022-11-30T02:47:17;5.25;;;2.33;;
22415;SDS011;12204;50.600;4.608;2022-11-30T02:52:26;5.00;;;2.15;;
22415;SDS011;12204;50.600;4.608;2022-11-30T02:57:31;4.32;;;1.90;;
22415;SDS011;12204;50.600;4.608;2022-11-30T03:02:36;4.10;;;1.90;;
22415;SDS011;12204;50.600;4.608;2022-11-30T03:07:41;5.95;;;2.47;;
22415;SDS011;12204;50.600;4.608;2022-11-30T03:12:45;4.63;;;2.13;;
22415;SDS011;12204;50.600;4.608;2022-11-30T03:17:50;5.00;;;2.10;;
22415;SDS011;12204;50.600;4.608;2022-11-30T03:22:55;4.75;;;2.28;;
22415;SDS011;12204;50.600;4.608;2022-11-30T03:28:02;5.45;;;2.53;;
22415;SDS011;12204;50.600;4.608;2022-11-30T03:33:07;4.57;;;2.00;;
22415;SDS011;12204;50.600;4.608;2022-11-30T03:38:12;4.45;;;2.20;;
22415;SDS011;12204;50.600;4.608;2022-11-30T03:43:15;5.13;;;1.92;;
22415;SDS011;12204;50.600;4.608;2022-11-30T03:48:21;4.22;;;2.10;;
22415;SDS011;12204;50.600;4.608;2022-11-30T03:53:25;4.95;;;2.30;;
22415;SDS011;12204;50.600;4.608;2022-11-30T03:58:29;5.22;;;2.25;;
22415;SDS011;12204;50.600;4.608;2022-11-30T04:03:34;4.75;;;2.15;;
22415;SDS011;12204;50.600;4.608;2022-11-30T04:08:39;4.82;;;2.22;;
22415;SDS011;12204;50.600;4.608;2022-11-30T04:13:44;5.35;;;2.20;;
22415;SDS011;12204;50.600;4.608;2022-11-30T04:18:49;5.65;;;2.40;;
22415;SDS011;12204;50.600;4.608;2022-11-30T04:23:52;4.70;;;2.05;;
22415;SDS011;12204;50.600;4.608;2022-11-30T04:28:56;4.57;;;2.10;;
22415;SDS011;12204;50.600;4.608;2022-11-30T04:34:06;4.97;;;2.10;;
22415;SDS011;12204;50.600;4.608;2022-11-30T04:39:09;4.00;;;2.10;;
22415;SDS011;12204;50.600;4.608;2022-11-30T04:44:13;5.05;;;2.30;;
22415;SDS011;12204;50.600;4.608;2022-11-30T04:49:18;4.60;;;2.03;;
22415;SDS011;12204;50.600;4.608;2022-11-30T04:54:22;4.90;;;2.15;;
22415;SDS011;12204;50.600;4.608;2022-11-30T04:59:25;4.15;;;1.92;;
22415;SDS011;12204;50.600;4.608;2022-11-30T05:04:30;4.88;;;2.00;;
22415;SDS011;12204;50.600;4.608;2022-11-30T05:09:34;5.43;;;2.40;;
22415;SDS011;12204;50.600;4.608;2022-11-30T05:14:37;4.80;;;2.10;;
22415;SDS011;12204;50.600;4.608;2022-11-30T05:19:42;4.68;;;2.20;;
22415;SDS011;12204;50.600;4.608;2022-11-30T05:24:46;5.53;;;2.20;;
22415;SDS011;12204;50.600;4.608;2022-11-30T05:29:50;4.50;;;2.10;;
22415;SDS011;12204;50.600;4.608;2022-11-30T05:34:55;5.20;;;2.30;;
22415;SDS011;12204;50.600;4.608;2022-11-30T05:39:59;4.30;;;2.20;;
22415;SDS011;12204;50.600;4.608;2022-11-30T05:45:03;5.17;;;2.30;;
22415;SDS011;12204;50.600;4.608;2022-11-30T05:50:09;4.68;;;2.15;;
22415;SDS011;12204;50.600;4.608;2022-11-30T05:55:13;4.13;;;1.98;;
22415;SDS011;12204;50.600;4.608;2022-11-30T06:00:17;4.32;;;2.00;;
22415;SDS011;12204;50.600;4.608;2022-11-30T06:05:24;4.90;;;2.40;;
22415;SDS011;12204;50.600;4.608;2022-11-30T06:10:29;5.20;;;2.30;;
22415;SDS011;12204;50.600;4.608;2022-11-30T06:15:32;4.68;;;2.20;;
22415;SDS011;12204;50.600;4.608;2022-11-30T06:20:37;4.60;;;2.30;;
22415;SDS011;12204;50.600;4.608;2022-11-30T06:25:41;4.78;;;2.10;;
22415;SDS011;12204;50.600;4.608;2022-11-30T06:30:45;4.20;;;2.15;;
22415;SDS011;12204;50.600;4.608;2022-11-30T06:35:50;4.70;;;2.10;;
22415;SDS011;12204;50.600;4.608;2022-11-30T06:40:53;3.88;;;2.00;;
22415;SDS011;12204;50.600;4.608;2022-11-30T06:45:57;4.97;;;2.30;;
22415;SDS011;12204;50.600;4.608;2022-11-30T06:51:03;4.10;;;2.10;;
22415;SDS011;12204;50.600;4.608;2022-11-30T06:56:08;4.63;;;2.25;;
22415;SDS011;12204;50.600;4.608;2022-11-30T07:01:13;4.05;;;2.00;;
22415;SDS011;12204;50.600;4.608;2022-11-30T07:06:18;4.15;;;1.88;;
22415;SDS011;12204;50.600;4.608;2022-11-30T07:11:22;4.53;;;2.13;;
22415;SDS011;12204;50.600;4.608;2022-11-30T07:16:25;4.25;;;2.00;;
22415;SDS011;12204;50.600;4.608;2022-11-30T07:21:30;3.55;;;1.80;;
22415;SDS011;12204;50.600;4.608;2022-11-30T07:26:34;3.78;;;1.90;;
22415;SDS011;12204;50.600;4.608;2022-11-30T07:31:37;4.25;;;2.00;;
22415;SDS011;12204;50.600;4.608;2022-11-30T07:36:43;4.32;;;2.10;;
22415;SDS011;12204;50.600;4.608;2022-11-30T07:41:47;4.28;;;1.90;;
22415;SDS011;12204;50.600;4.608;2022-11-30T07:46:51;3.97;;;1.83;;
22415;SDS011;12204;50.600;4.608;2022-11-30T07:51:56;4.55;;;1.90;;
22415;SDS011;12204;50.600;4.608;2022-11-30T07:57:00;4.53;;;1.88;;
22415;SDS011;12204;50.600;4.608;2022-11-30T08:02:04;4.15;;;1.98;;
22415;SDS011;12204;50.600;4.608;2022-11-30T08:07:09;4.32;;;2.00;;
22415;SDS011;12204;50.600;4.608;2022-11-30T08:12:12;3.67;;;2.00;;
22415;SDS011;12204;50.600;4.608;2022-11-30T08:17:16;4.40;;;1.98;;
22415;SDS011;12204;50.600;4.608;2022-11-30T08:22:21;4.10;;;2.05;;
22415;SDS011;12204;50.600;4.608;2022-11-30T08:27:25;3.80;;;2.00;;
22415;SDS011;12204;50.600;4.608;2022-11-30T08:32:29;4.88;;;2.00;;
22415;SDS011;12204;50.600;4.608;2022-11-30T08:37:35;3.55;;;1.67;;
22415;SDS011;12204;50.600;4.608;2022-11-30T08:42:39;3.63;;;1.75;;
22415;SDS011;12204;50.600;4.608;2022-11-30T08:47:43;4.28;;;2.03;;
22415;SDS011;12204;50.600;4.608;2022-11-30T08:52:48;4.07;;;2.13;;
22415;SDS011;12204;50.600;4.608;2022-11-30T08:57:51;3.70;;;1.88;;
22415;SDS011;12204;50.600;4.608;2022-11-30T09:02:55;3.50;;;1.80;;
22415;SDS011;12204;50.600;4.608;2022-11-30T09:08:00;4.00;;;1.77;;
22415;SDS011;12204;50.600;4.608;2022-11-30T09:13:04;3.90;;;2.00;;
22415;SDS011;12204;50.600;4.608;2022-11-30T09:18:07;3.72;;;1.80;;
22415;SDS011;12204;50.600;4.608;2022-11-30T09:23:14;4.20;;;1.88;;
22415;SDS011;12204;50.600;4.608;2022-11-30T09:28:18;4.85;;;2.00;;
22415;SDS011;12204;50.600;4.608;2022-11-30T09:33:21;3.72;;;1.75;;
22415;SDS011;12204;50.600;4.608;2022-11-30T09:38:26;4.03;;;1.92;;
22415;SDS011;12204;50.600;4.608;2022-11-30T09:43:33;4.20;;;1.77;;
22415;SDS011;12204;50.600;4.608;2022-11-30T09:48:53;3.70;;;1.92;;
22415;SDS011;12204;50.600;4.608;2022-11-30T09:54:04;4.13;;;1.85;;
22415;SDS011;12204;50.600;4.608;2022-11-30T09:59:14;3.70;;;1.80;;
22415;SDS011;12204;50.600;4.608;2022-11-30T10:04:26;4.70;;;2.10;;
22415;SDS011;12204;50.600;4.608;2022-11-30T10:09:37;4.28;;;2.03;;
22415;SDS011;12204;50.600;4.608;2022-11-30T10:15:15;5.00;;;2.10;;
22415;SDS011;12204;50.600;4.608;2022-11-30T10:20:38;5.45;;;2.00;;
22415;SDS011;12204;50.600;4.608;2022-11-30T10:25:58;3.95;;;1.92;;
22415;SDS011;12204;50.600;4.608;2022-11-30T10:31:10;4.38;;;2.10;;
22415;SDS011;12204;50.600;4.608;2022-11-30T10:36:19;4.50;;;1.80;;
22415;SDS011;12204;50.600;4.608;2022-11-30T10:41:32;4.18;;;1.80;;
22415;SDS011;12204;50.600;4.608;2022-11-30T10:46:44;4.82;;;2.00;;
22415;SDS011;12204;50.600;4.608;2022-11-30T10:52:00;4.50;;;2.10;;
22415;SDS011;12204;50.600;4.608;2022-11-30T10:57:08;5.40;;;2.17;;
22415;SDS011;12204;50.600;4.608;2022-11-30T11:02:35;4.30;;;2.00;;
22415;SDS011;12204;50.600;4.608;2022-11-30T11:13:04;3.40;;;1.60;;
22415;SDS011;12204;50.600;4.608;2022-11-30T11:18:21;5.57;;;2.15;;
22415;SDS011;12204;50.600;4.608;2022-11-30T11:23:29;5.22;;;2.05;;
22415;SDS011;12204;50.600;4.608;2022-11-30T11:28:42;7.03;;;2.30;;
22415;SDS011;12204;50.600;4.608;2022-11-30T11:33:51;4.78;;;1.98;;
22415;SDS011;12204;50.600;4.608;2022-11-30T11:38:56;4.32;;;2.00;;
22415;SDS011;12204;50.600;4.608;2022-11-30T11:44:02;4.20;;;1.90;;
22415;SDS011;12204;50.600;4.608;2022-11-30T11:49:23;4.25;;;2.05;;
22415;SDS011;12204;50.600;4.608;2022-11-30T11:54:30;5.37;;;2.40;;
22415;SDS011;12204;50.600;4.608;2022-11-30T11:59:44;4.70;;;2.13;;
22415;SDS011;12204;50.600;4.608;2022-11-30T12:04:55;3.95;;;1.90;;
22415;SDS011;12204;50.600;4.608;2022-11-30T12:10:11;4.88;;;2.08;;
22415;SDS011;12204;50.600;4.608;2022-11-30T12:15:58;4.93;;;1.90;;
22415;SDS011;12204;50.600;4.608;2022-11-30T12:21:22;4.43;;;2.00;;
22415;SDS011;12204;50.600;4.608;2022-11-30T12:26:37;4.90;;;2.20;;
22415;SDS011;12204;50.600;4.608;2022-11-30T12:31:53;3.80;;;1.92;;
22415;SDS011;12204;50.600;4.608;2022-11-30T12:37:12;4.72;;;2.17;;
22415;SDS011;12204;50.600;4.608;2022-11-30T12:42:28;5.13;;;2.28;;
22415;SDS011;12204;50.600;4.608;2022-11-30T12:47:46;4.82;;;2.20;;
22415;SDS011;12204;50.600;4.608;2022-11-30T12:53:03;4.93;;;2.30;;
22415;SDS011;12204;50.600;4.608;2022-11-30T12:58:22;4.70;;;2.03;;
22415;SDS011;12204;50.600;4.608;2022-11-30T13:03:44;3.83;;;1.90;;
22415;SDS011;12204;50.600;4.608;2022-11-30T13:09:02;4.40;;;2.17;;
22415;SDS011;12204;50.600;4.608;2022-11-30T13:14:16;5.85;;;2.10;;
22415;SDS011;12204;50.600;4.608;2022-11-30T13:19:33;4.40;;;2.05;;
22415;SDS011;12204;50.600;4.608;2022-11-30T13:24:53;5.07;;;2.30;;
22415;SDS011;12204;50.600;4.608;2022-11-30T13:30:13;4.97;;;2.10;;
22415;SDS011;12204;50.600;4.608;2022-11-30T13:35:40;5.53;;;2.17;;
22415;SDS011;12204;50.600;4.608;2022-11-30T13:40:55;5.53;;;2.30;;
22415;SDS011;12204;50.600;4.608;2022-11-30T13:46:05;4.25;;;2.25;;
22415;SDS011;12204;50.600;4.608;2022-11-30T13:56:39;5.35;;;2.20;;
22415;SDS011;12204;50.600;4.608;2022-11-30T14:01:48;5.03;;;2.45;;
22415;SDS011;12204;50.600;4.608;2022-11-30T14:06:54;4.38;;;2.13;;
22415;SDS011;12204;50.600;4.608;2022-11-30T14:12:04;4.72;;;2.40;;
22415;SDS011;12204;50.600;4.608;2022-11-30T14:17:59;3.92;;;2.05;;
22415;SDS011;12204;50.600;4.608;2022-11-30T14:23:20;6.10;;;2.60;;
22415;SDS011;12204;50.600;4.608;2022-11-30T14:28:34;4.65;;;2.55;;
22415;SDS011;12204;50.600;4.608;2022-11-30T14:33:47;5.15;;;2.30;;
22415;SDS011;12204;50.600;4.608;2022-11-30T14:38:57;5.38;;;2.40;;
22415;SDS011;12204;50.600;4.608;2022-11-30T14:44:04;5.18;;;2.47;;
22415;SDS011;12204;50.600;4.608;2022-11-30T14:49:15;4.50;;;2.17;;
22415;SDS011;12204;50.600;4.608;2022-11-30T14:54:25;5.45;;;2.45;;
22415;SDS011;12204;50.600;4.608;2022-11-30T14:59:44;5.60;;;2.78;;
22415;SDS011;12204;50.600;4.608;2022-11-30T15:04:52;4.68;;;2.22;;
22415;SDS011;12204;50.600;4.608;2022-11-30T15:10:00;4.97;;;2.30;;
22415;SDS011;12204;50.600;4.608;2022-11-30T15:15:13;5.20;;;2.20;;
22415;SDS011;12204;50.600;4.608;2022-11-30T15:20:23;5.32;;;2.55;;
22415;SDS011;12204;50.600;4.608;2022-11-30T15:25:35;4.97;;;2.58;;
22415;SDS011;12204;50.600;4.608;2022-11-30T15:30:43;5.20;;;2.60;;
22415;SDS011;12204;50.600;4.608;2022-11-30T15:35:49;5.32;;;2.58;;
22415;SDS011;12204;50.600;4.608;2022-11-30T15:41:18;4.43;;;2.40;;
22415;SDS011;12204;50.600;4.608;2022-11-30T15:46:28;4.53;;;2.30;;
22415;SDS011;12204;50.600;4.608;2022-11-30T15:51:45;5.07;;;2.40;;
22415;SDS011;12204;50.600;4.608;2022-11-30T15:56:59;5.05;;;2.60;;
22415;SDS011;12204;50.600;4.608;2022-11-30T16:02:22;5.63;;;2.65;;
22415;SDS011;12204;50.600;4.608;2022-11-30T16:07:30;5.68;;;2.53;;
22415;SDS011;12204;50.600;4.608;2022-11-30T16:12:39;5.80;;;2.80;;
22415;SDS011;12204;50.600;4.608;2022-11-30T16:17:45;5.32;;;2.42;;
22415;SDS011;12204;50.600;4.608;2022-11-30T16:22:49;5.53;;;2.65;;
22415;SDS011;12204;50.600;4.608;2022-11-30T16:27:54;5.28;;;2.50;;
22415;SDS011;12204;50.600;4.608;2022-11-30T16:32:58;5.20;;;2.40;;
22415;SDS011;12204;50.600;4.608;2022-11-30T16:38:01;6.07;;;2.70;;
22415;SDS011;12204;50.600;4.608;2022-11-30T16:43:08;5.18;;;2.58;;
22415;SDS011;12204;50.600;4.608;2022-11-30T16:48:13;5.27;;;2.50;;
22415;SDS011;12204;50.600;4.608;2022-11-30T16:53:16;5.68;;;2.65;;
22415;SDS011;12204;50.600;4.608;2022-11-30T16:58:25;4.77;;;2.60;;
22415;SDS011;12204;50.600;4.608;2022-11-30T17:03:29;5.03;;;2.70;;
22415;SDS011;12204;50.600;4.608;2022-11-30T17:08:35;5.38;;;2.70;;
22415;SDS011;12204;50.600;4.608;2022-11-30T17:13:40;5.50;;;2.80;;
22415;SDS011;12204;50.600;4.608;2022-11-30T17:18:43;5.90;;;2.83;;
22415;SDS011;12204;50.600;4.608;2022-11-30T17:23:47;5.30;;;2.70;;
22415;SDS011;12204;50.600;4.608;2022-11-30T17:28:52;4.82;;;2.60;;
22415;SDS011;12204;50.600;4.608;2022-11-30T17:33:55;5.43;;;2.80;;
22415;SDS011;12204;50.600;4.608;2022-11-30T17:39:02;6.90;;;2.90;;
22415;SDS011;12204;50.600;4.608;2022-11-30T17:44:09;5.15;;;2.50;;
22415;SDS011;12204;50.600;4.608;2022-11-30T17:49:13;5.78;;;2.88;;
22415;SDS011;12204;50.600;4.608;2022-11-30T17:54:17;5.47;;;2.80;;
22415;SDS011;12204;50.600;4.608;2022-11-30T17:59:22;5.82;;;2.83;;
22415;SDS011;12204;50.600;4.608;2022-11-30T18:04:26;7.20;;;2.97;;
22415;SDS011;12204;50.600;4.608;2022-11-30T18:09:29;6.85;;;3.03;;
22415;SDS011;12204;50.600;4.608;2022-11-30T18:14:42;5.40;;;2.90;;
22415;SDS011;12204;50.600;4.608;2022-11-30T18:19:47;5.95;;;2.80;;
22415;SDS011;12204;50.600;4.608;2022-11-30T18:24:51;5.60;;;3.00;;
22415;SDS011;12204;50.600;4.608;2022-11-30T18:29:56;5.70;;;3.10;;
22415;SDS011;12204;50.600;4.608;2022-11-30T18:35:00;5.43;;;2.80;;
22415;SDS011;12204;50.600;4.608;2022-11-30T18:40:04;6.20;;;3.08;;
22415;SDS011;12204;50.600;4.608;2022-11-30T18:45:11;5.90;;;2.90;;
22415;SDS011;12204;50.600;4.608;2022-11-30T18:50:15;6.18;;;2.80;;
22415;SDS011;12204;50.600;4.608;2022-11-30T18:55:18;5.70;;;2.88;;
22415;SDS011;12204;50.600;4.608;2022-11-30T19:00:24;5.15;;;2.75;;
22415;SDS011;12204;50.600;4.608;2022-11-30T19:05:27;5.95;;;3.00;;
22415;SDS011;12204;50.600;4.608;2022-11-30T19:10:36;6.03;;;2.97;;
22415;SDS011;12204;50.600;4.608;2022-11-30T19:15:42;6.45;;;3.22;;
22415;SDS011;12204;50.600;4.608;2022-11-30T19:20:46;6.60;;;3.28;;
22415;SDS011;12204;50.600;4.608;2022-11-30T19:25:50;5.88;;;3.17;;
22415;SDS011;12204;50.600;4.608;2022-11-30T19:30:55;6.88;;;3.10;;
22415;SDS011;12204;50.600;4.608;2022-11-30T19:36:00;5.60;;;3.13;;
22415;SDS011;12204;50.600;4.608;2022-11-30T19:41:06;6.28;;;3.25;;
22415;SDS011;12204;50.600;4.608;2022-11-30T19:46:13;6.00;;;3.33;;
22415;SDS011;12204;50.600;4.608;2022-11-30T19:51:18;6.05;;;3.13;;
22415;SDS011;12204;50.600;4.608;2022-11-30T19:56:22;5.93;;;3.25;;
22415;SDS011;12204;50.600;4.608;2022-11-30T20:01:28;6.68;;;3.47;;
22415;SDS011;12204;50.600;4.608;2022-11-30T20:06:32;6.45;;;3.50;;
22415;SDS011;12204;50.600;4.608;2022-11-30T20:11:38;6.93;;;3.60;;
22415;SDS011;12204;50.600;4.608;2022-11-30T20:16:43;7.72;;;3.90;;
22415;SDS011;12204;50.600;4.608;2022-11-30T20:21:47;7.55;;;3.70;;
22415;SDS011;12204;50.600;4.608;2022-11-30T20:26:50;6.60;;;3.47;;
22415;SDS011;12204;50.600;4.608;2022-11-30T20:31:55;7.13;;;3.55;;
22415;SDS011;12204;50.600;4.608;2022-11-30T20:36:59;6.97;;;3.65;;
22415;SDS011;12204;50.600;4.608;2022-11-30T20:42:03;7.82;;;3.30;;
22415;SDS011;12204;50.600;4.608;2022-11-30T20:47:08;8.00;;;3.90;;
22415;SDS011;12204;50.600;4.608;2022-11-30T20:52:12;10.90;;;3.80;;
22415;SDS011;12204;50.600;4.608;2022-11-30T20:57:16;9.80;;;3.42;;
22415;SDS011;12204;50.600;4.608;2022-11-30T21:02:21;7.47;;;3.17;;
22415;SDS011;12204;50.600;4.608;2022-11-30T21:07:24;8.07;;;3.25;;
22415;SDS011;12204;50.600;4.608;2022-11-30T21:12:28;8.43;;;3.33;;
22415;SDS011;12204;50.600;4.608;2022-11-30T21:17:33;10.50;;;3.55;;
22415;SDS011;12204;50.600;4.608;2022-11-30T21:22:37;9.15;;;3.47;;
22415;SDS011;12204;50.600;4.608;2022-11-30T21:27:41;14.75;;;3.90;;
22415;SDS011;12204;50.600;4.608;2022-11-30T21:32:46;14.35;;;4.13;;
22415;SDS011;12204;50.600;4.608;2022-11-30T21:37:50;14.52;;;3.50;;
22415;SDS011;12204;50.600;4.608;2022-11-30T21:42:54;12.57;;;3.85;;
22415;SDS011;12204;50.600;4.608;2022-11-30T21:47:59;9.68;;;3.55;;
22415;SDS011;12204;50.600;4.608;2022-11-30T21:53:03;12.27;;;3.47;;
22415;SDS011;12204;50.600;4.608;2022-11-30T21:58:06;8.18;;;3.40;;
22415;SDS011;12204;50.600;4.608;2022-11-30T22:03:12;11.20;;;3.63;;
22415;SDS011;12204;50.600;4.608;2022-11-30T22:08:20;12.60;;;3.85;;
22415;SDS011;12204;50.600;4.608;2022-11-30T22:13:23;7.65;;;3.70;;
22415;SDS011;12204;50.600;4.608;2022-11-30T22:18:29;9.27;;;3.65;;
22415;SDS011;12204;50.600;4.608;2022-11-30T22:23:33;12.27;;;3.83;;
22415;SDS011;12204;50.600;4.608;2022-11-30T22:28:39;8.88;;;3.72;;
22415;SDS011;12204;50.600;4.608;2022-11-30T22:33:48;9.30;;;3.90;;
22415;SDS011;12204;50.600;4.608;2022-11-30T22:38:52;8.70;;;3.55;;
22415;SDS011;12204;50.600;4.608;2022-11-30T22:43:57;8.43;;;3.67;;
22415;SDS011;12204;50.600;4.608;2022-11-30T22:49:03;8.13;;;3.80;;
22415;SDS011;12204;50.600;4.608;2022-11-30T22:59:14;8.52;;;3.80;;
22415;SDS011;12204;50.600;4.608;2022-11-30T23:04:19;8.80;;;4.15;;
22415;SDS011;12204;50.600;4.608;2022-11-30T23:09:24;8.20;;;3.90;;
22415;SDS011;12204;50.600;4.608;2022-11-30T23:14:27;8.48;;;3.83;;
22415;SDS011;12204;50.600;4.608;2022-11-30T23:19:33;9.75;;;3.90;;
22415;SDS011;12204;50.600;4.608;2022-11-30T23:24:36;9.55;;;4.28;;
22415;SDS011;12204;50.600;4.608;2022-11-30T23:29:40;9.18;;;4.00;;
22415;SDS011;12204;50.600;4.608;2022-11-30T23:34:45;8.70;;;3.78;;
22415;SDS011;12204;50.600;4.608;2022-11-30T23:39:51;8.77;;;4.18;;
22415;SDS011;12204;50.600;4.608;2022-11-30T23:44:55;10.23;;;4.35;;
22415;SDS011;12204;50.600;4.608;2022-11-30T23:50:03;7.68;;;3.90;;
22415;SDS011;12204;50.600;4.608;2022-11-30T23:55:08;8.23;;;4.37;;
